createdAt,value
2018-04-18T04:00:58.090Z,45.10
2018-04-18T04:03:25.058Z,45.10
2018-04-18T04:05:52.796Z,45.20
2018-04-18T04:08:22.279Z,43.90
2018-04-18T04:10:48.532Z,43.90
2018-04-18T04:13:14.761Z,43.60
2018-04-18T04:15:40.998Z,43.40
2018-04-18T04:18:07.277Z,43.30
2018-04-18T04:20:33.497Z,43.30
2018-04-18T04:22:59.750Z,43.30
2018-04-18T04:25:26.013Z,43.20
2018-04-18T04:27:52.256Z,43.10
2018-04-18T04:30:18.582Z,43.00
2018-04-18T04:32:45.159Z,42.90
2018-04-18T04:35:11.408Z,42.90
2018-04-18T04:37:38.306Z,43.40
2018-04-18T04:40:04.548Z,43.60
2018-04-18T04:42:30.880Z,45.60
2018-04-18T04:44:57.221Z,45.20
2018-04-18T04:47:24.386Z,44.60
2018-04-18T04:49:50.646Z,44.40
2018-04-18T04:52:16.856Z,44.60
2018-04-18T04:54:43.857Z,45.30
2018-04-18T04:57:10.108Z,44.70
2018-04-18T04:59:36.327Z,44.60
2018-04-18T05:02:02.575Z,45.20
2018-04-18T05:04:29.583Z,45.00
2018-04-18T05:06:55.843Z,44.90
2018-04-18T05:09:22.144Z,45.00
2018-04-18T05:11:48.393Z,45.00
2018-04-18T05:14:14.617Z,45.10
2018-04-18T05:16:40.854Z,45.10
2018-04-18T05:19:07.135Z,45.10
2018-04-18T05:21:33.378Z,45.10
2018-04-18T05:23:59.603Z,45.20
2018-04-18T05:26:25.840Z,45.20
2018-04-18T05:28:52.081Z,45.20
2018-04-18T05:31:18.312Z,45.20
2018-04-18T05:33:44.555Z,45.20
2018-04-18T05:36:10.838Z,45.30
2018-04-18T05:38:37.069Z,45.30
2018-04-18T05:41:03.338Z,45.30
2018-04-18T05:43:29.610Z,45.30
2018-04-18T05:45:55.872Z,45.30
2018-04-18T05:48:22.898Z,45.30
2018-04-18T05:50:49.148Z,45.30
2018-04-18T05:53:15.436Z,45.30
2018-04-18T05:55:41.731Z,45.40
2018-04-18T05:58:07.989Z,45.40
2018-04-18T06:00:34.261Z,45.40
2018-04-18T06:03:00.992Z,45.40
2018-04-18T06:05:27.268Z,45.40
2018-04-18T06:07:53.526Z,45.40
2018-04-18T06:10:19.770Z,45.50
2018-04-18T06:12:46.072Z,45.40
2018-04-18T06:15:12.325Z,45.50
2018-04-18T06:17:38.586Z,45.40
2018-04-18T06:20:04.817Z,45.50
2018-04-18T06:22:31.056Z,45.50
2018-04-18T06:24:57.332Z,45.50
2018-04-18T06:27:23.562Z,45.50
2018-04-18T06:29:49.813Z,45.50
2018-04-18T06:32:16.047Z,45.50
2018-04-18T06:34:42.263Z,45.50
2018-04-18T06:37:08.521Z,45.60
2018-04-18T06:39:34.794Z,45.60
2018-04-18T06:42:01.029Z,45.60
2018-04-18T06:44:27.262Z,45.50
2018-04-18T06:46:53.506Z,45.60
2018-04-18T06:49:19.782Z,45.60
2018-04-18T06:51:46.049Z,45.60
2018-04-18T06:54:12.312Z,45.60
2018-04-18T06:56:39.332Z,46.30
2018-04-18T06:59:05.604Z,45.60
2018-04-18T07:01:31.880Z,45.60
2018-04-18T07:03:58.126Z,45.60
2018-04-18T07:06:24.888Z,45.60
2018-04-18T07:08:51.174Z,45.60
2018-04-18T07:11:17.466Z,45.60
2018-04-18T07:13:44.089Z,45.70
2018-04-18T07:16:10.335Z,45.70
2018-04-18T07:18:36.569Z,45.70
2018-04-18T07:21:02.794Z,45.70
2018-04-18T07:23:29.021Z,45.70
2018-04-18T07:25:55.297Z,45.70
2018-04-18T07:28:21.548Z,45.70
2018-04-18T07:30:47.781Z,45.70
2018-04-18T07:33:14.040Z,45.70
2018-04-18T07:35:41.427Z,45.70
2018-04-18T07:38:07.693Z,45.70
2018-04-18T07:40:33.931Z,45.70
2018-04-18T07:43:00.181Z,45.70
2018-04-18T07:45:26.411Z,45.70
2018-04-18T07:47:52.658Z,45.80
2018-04-18T07:50:18.905Z,45.70
2018-04-18T07:52:45.891Z,45.90
2018-04-18T07:55:12.134Z,45.70
2018-04-18T07:57:38.388Z,45.80
2018-04-18T08:00:04.623Z,45.80
2018-04-18T08:02:30.895Z,45.80
2018-04-18T08:04:57.118Z,45.80
2018-04-18T08:07:23.352Z,45.80
2018-04-18T08:09:49.607Z,45.80
2018-04-18T08:12:15.862Z,45.90
2018-04-18T08:14:42.140Z,45.80
2018-04-18T08:17:08.378Z,45.80
2018-04-18T08:19:34.610Z,45.80
2018-04-18T08:22:00.858Z,45.70
2018-04-18T08:24:27.082Z,45.70
2018-04-18T08:26:53.345Z,45.80
2018-04-18T08:29:20.367Z,45.90
2018-04-18T08:31:46.594Z,45.70
2018-04-18T08:34:12.829Z,45.80
2018-04-18T08:36:39.060Z,45.80
2018-04-18T08:39:05.325Z,45.80
2018-04-18T08:41:31.549Z,45.80
2018-04-18T08:43:57.782Z,45.80
2018-04-18T08:46:24.026Z,45.80
2018-04-18T08:48:50.305Z,45.80
2018-04-18T08:51:16.972Z,45.80
2018-04-18T08:53:43.194Z,45.80
2018-04-18T08:56:09.419Z,45.80
2018-04-18T08:58:35.672Z,45.80
2018-04-18T09:01:01.919Z,45.80
2018-04-18T09:03:28.203Z,45.80
2018-04-18T09:05:54.412Z,45.70
2018-04-18T09:08:20.694Z,45.80
2018-04-18T09:10:46.948Z,45.80
2018-04-18T09:13:13.196Z,45.70
2018-04-18T09:15:39.481Z,45.70
2018-04-18T09:18:05.824Z,45.70
2018-04-18T09:20:32.041Z,46.30
2018-04-18T09:22:58.261Z,45.70
2018-04-18T09:25:24.512Z,45.70
2018-04-18T09:27:50.809Z,45.70
2018-04-18T09:30:17.766Z,45.70
2018-04-18T09:32:43.993Z,45.60
2018-04-18T09:35:10.279Z,45.70
2018-04-18T09:37:36.766Z,45.70
2018-04-18T09:40:03.449Z,45.70
2018-04-18T09:42:30.435Z,45.60
2018-04-18T09:44:56.684Z,45.60
2018-04-18T09:47:23.325Z,45.60
2018-04-18T09:49:49.549Z,45.60
2018-04-18T09:52:15.825Z,45.60
2018-04-18T09:54:42.773Z,45.60
2018-04-18T09:57:09.021Z,45.60
2018-04-18T09:59:35.259Z,45.50
2018-04-18T10:02:01.492Z,46.10
2018-04-18T10:04:27.721Z,45.30
2018-04-18T10:06:54.670Z,45.50
2018-04-18T10:09:20.913Z,45.40
2018-04-18T10:11:47.426Z,45.50
2018-04-18T10:14:13.677Z,45.50
2018-04-18T10:16:39.928Z,45.50
2018-04-18T10:19:06.884Z,45.40
2018-04-18T10:21:33.165Z,45.50
2018-04-18T10:23:59.394Z,45.50
2018-04-18T10:26:25.618Z,45.40
2018-04-18T10:28:51.864Z,45.40
2018-04-18T10:31:18.101Z,45.40
2018-04-18T10:33:44.376Z,45.40
2018-04-18T10:36:10.606Z,45.30
2018-04-18T10:38:36.830Z,45.20
2018-04-18T10:41:03.057Z,45.20
2018-04-18T10:43:29.296Z,45.30
2018-04-18T10:45:55.587Z,45.20
2018-04-18T10:48:22.185Z,45.20
2018-04-18T10:50:49.325Z,45.10
2018-04-18T10:53:16.173Z,45.10
2018-04-18T10:55:42.401Z,45.10
2018-04-18T10:58:08.635Z,45.80
2018-04-18T11:00:34.873Z,45.20
2018-04-18T11:03:01.085Z,45.10
2018-04-18T11:05:27.313Z,45.10
2018-04-18T11:07:53.539Z,45.10
2018-04-18T11:10:20.580Z,45.10
2018-04-18T11:12:47.631Z,45.10
2018-04-18T11:15:14.655Z,45.10
2018-04-18T11:17:40.928Z,45.00
2018-04-18T11:20:07.146Z,45.10
2018-04-18T11:22:33.915Z,45.00
2018-04-18T11:25:00.172Z,45.00
2018-04-18T11:27:27.007Z,45.00
2018-04-18T11:29:53.252Z,45.00
2018-04-18T11:32:19.498Z,44.90
2018-04-18T11:34:45.728Z,45.00
2018-04-18T11:37:12.011Z,45.00
2018-04-18T11:39:38.231Z,44.90
2018-04-18T11:42:04.457Z,44.70
2018-04-18T11:44:30.746Z,45.00
2018-04-18T11:46:57.204Z,44.90
2018-04-18T11:49:23.425Z,44.90
2018-04-18T11:51:49.673Z,44.80
2018-04-18T11:54:15.905Z,44.80
2018-04-18T11:56:42.149Z,44.90
2018-04-18T11:59:08.564Z,44.80
2018-04-18T12:01:34.801Z,44.80
2018-04-18T12:04:01.083Z,44.80
2018-04-18T12:06:27.301Z,44.70
2018-04-18T12:08:53.527Z,44.80
2018-04-18T12:11:19.813Z,44.70
2018-04-18T12:13:46.059Z,44.80
2018-04-18T12:16:12.297Z,44.70
2018-04-18T12:18:39.312Z,44.70
2018-04-18T12:21:06.188Z,44.70
2018-04-18T12:23:32.469Z,44.70
2018-04-18T12:25:58.704Z,44.60
2018-04-18T12:28:24.933Z,44.70
2018-04-18T12:30:51.168Z,44.60
2018-04-18T12:33:17.400Z,44.70
2018-04-18T12:35:44.394Z,44.60
2018-04-18T12:38:10.632Z,44.60
2018-04-18T12:40:36.885Z,44.60
2018-04-18T12:43:03.121Z,44.60
2018-04-18T12:45:30.136Z,44.60
2018-04-18T12:47:56.393Z,44.50
2018-04-18T12:50:22.623Z,44.60
2018-04-18T12:52:48.869Z,44.50
2018-04-18T12:55:15.867Z,44.60
2018-04-18T12:57:42.144Z,44.60
2018-04-18T13:00:08.402Z,44.60
2018-04-18T13:02:34.658Z,44.60
2018-04-18T13:05:00.890Z,44.70
2018-04-18T13:07:27.151Z,44.80
2018-04-18T13:09:53.390Z,44.90
2018-04-18T13:12:19.748Z,44.70
2018-04-18T13:14:45.940Z,44.60
2018-04-18T13:17:12.407Z,44.60
2018-04-18T13:19:38.631Z,44.70
2018-04-18T13:22:04.878Z,44.60
2018-04-18T13:24:31.131Z,44.60
2018-04-18T13:26:57.372Z,45.20
2018-04-18T13:29:23.594Z,44.60
2018-04-18T13:31:49.848Z,44.60
2018-04-18T13:34:16.462Z,44.50
2018-04-18T13:36:42.727Z,44.60
2018-04-18T13:39:08.947Z,44.70
2018-04-18T13:41:35.330Z,44.70
2018-04-18T13:44:01.593Z,44.70
2018-04-18T13:46:27.833Z,44.70
2018-04-18T13:48:54.098Z,44.80
2018-04-18T13:51:20.338Z,44.80
2018-04-18T13:53:47.364Z,45.10
2018-04-18T13:56:13.621Z,44.90
2018-04-18T13:58:39.872Z,44.90
2018-04-18T14:01:06.144Z,45.00
2018-04-18T14:03:32.412Z,45.10
2018-04-18T14:05:58.708Z,45.20
2018-04-18T14:08:25.199Z,45.20
2018-04-18T14:10:51.431Z,45.30
2018-04-18T14:13:17.707Z,45.30
2018-04-18T14:15:43.957Z,45.30
2018-04-18T14:18:10.205Z,45.30
2018-04-18T14:20:36.455Z,45.30
2018-04-18T14:23:02.873Z,45.30
2018-04-18T14:25:29.176Z,45.30
2018-04-18T14:27:55.423Z,45.40
2018-04-18T14:30:21.651Z,45.30
2018-04-18T14:32:47.887Z,45.40
2018-04-18T14:35:14.117Z,45.40
2018-04-18T14:37:41.181Z,45.50
2018-04-18T14:40:07.430Z,45.40
2018-04-18T14:42:33.678Z,45.50
2018-04-18T14:44:59.929Z,45.50
2018-04-18T14:47:26.193Z,45.50
2018-04-18T14:49:52.476Z,45.50
2018-04-18T14:52:18.697Z,45.50
2018-04-18T14:54:44.948Z,45.40
2018-04-18T14:57:11.209Z,45.50
2018-04-18T14:59:37.434Z,45.40
2018-04-18T15:02:03.709Z,45.30
2018-04-18T15:04:30.708Z,45.80
2018-04-18T15:06:56.925Z,45.80
2018-04-18T15:09:23.353Z,45.70
2018-04-18T15:11:49.597Z,45.70
2018-04-18T15:14:15.880Z,45.60
2018-04-18T15:16:42.102Z,45.70
2018-04-18T15:19:08.340Z,45.50
2018-04-18T15:21:34.592Z,45.60
2018-04-18T15:24:00.838Z,45.50
2018-04-18T15:26:27.109Z,45.60
2018-04-18T15:28:53.364Z,45.60
2018-04-18T15:31:19.612Z,45.50
2018-04-18T15:33:45.855Z,45.40
2018-04-18T15:36:12.137Z,45.60
2018-04-18T15:38:38.394Z,45.50
2018-04-18T15:41:04.614Z,45.50
2018-04-18T15:43:30.838Z,45.50
2018-04-18T15:45:57.074Z,45.60
2018-04-18T15:48:23.302Z,45.50
2018-04-18T15:50:50.344Z,45.50
2018-04-18T15:53:17.343Z,45.50
2018-04-18T15:55:43.573Z,45.40
2018-04-18T15:58:09.820Z,45.40
2018-04-18T16:00:36.050Z,45.40
2018-04-18T16:03:02.340Z,45.40
2018-04-18T16:05:28.616Z,45.40
2018-04-18T16:07:54.874Z,45.40
2018-04-18T16:10:21.122Z,45.40
2018-04-18T16:12:47.367Z,45.40
2018-04-18T16:15:13.646Z,45.40
2018-04-18T16:17:39.885Z,45.40
2018-04-18T16:20:06.342Z,45.40
2018-04-18T16:22:32.591Z,45.40
2018-04-18T16:24:58.832Z,45.40
2018-04-18T16:27:25.090Z,45.30
2018-04-18T16:29:52.077Z,45.40
2018-04-18T16:32:18.326Z,45.30
2018-04-18T16:34:44.568Z,45.30
2018-04-18T16:37:10.807Z,45.30
2018-04-18T16:39:37.103Z,45.30
2018-04-18T16:42:03.321Z,45.30
2018-04-18T16:44:29.546Z,45.40
2018-04-18T16:46:56.543Z,45.70
2018-04-18T16:49:22.773Z,45.30
2018-04-18T16:51:49.034Z,45.40
2018-04-18T16:54:15.253Z,45.40
2018-04-18T16:56:41.499Z,45.40
2018-04-18T16:59:07.749Z,45.40
2018-04-18T17:01:33.974Z,45.50
2018-04-18T17:04:00.230Z,45.40
2018-04-18T17:06:26.476Z,45.50
2018-04-18T17:08:52.692Z,45.20
2018-04-18T17:11:18.927Z,45.40
2018-04-18T17:13:45.177Z,45.40
2018-04-18T17:16:11.454Z,45.50
2018-04-18T17:18:37.677Z,45.50
2018-04-18T17:21:03.906Z,45.50
2018-04-18T17:23:30.168Z,45.50
2018-04-18T17:25:57.029Z,45.60
2018-04-18T17:28:23.306Z,45.60
2018-04-18T17:30:49.529Z,45.50
2018-04-18T17:33:15.796Z,45.50
2018-04-18T17:35:42.034Z,45.60
2018-04-18T17:38:08.260Z,45.60
2018-04-18T17:40:34.532Z,45.60
2018-04-18T17:43:00.783Z,45.60
2018-04-18T17:45:27.050Z,45.60
2018-04-18T17:47:54.080Z,45.70
2018-04-18T17:50:20.307Z,45.70
2018-04-18T17:52:46.594Z,45.70
2018-04-18T17:55:12.833Z,45.70
2018-04-18T17:57:39.086Z,45.60
2018-04-18T18:00:05.310Z,45.60
2018-04-18T18:02:31.529Z,45.60
2018-04-18T18:04:58.384Z,45.60
2018-04-18T18:07:24.640Z,45.70
2018-04-18T18:09:50.873Z,45.60
2018-04-18T18:12:17.545Z,45.70
2018-04-18T18:14:43.779Z,45.70
2018-04-18T18:17:10.169Z,45.70
2018-04-18T18:19:36.407Z,45.70
2018-04-18T18:22:02.651Z,45.70
2018-04-18T18:24:28.898Z,46.00
2018-04-18T18:26:55.146Z,45.90
2018-04-18T18:29:21.435Z,45.90
2018-04-18T18:31:47.719Z,45.90
2018-04-18T18:34:13.959Z,46.00
2018-04-18T18:36:40.927Z,46.30
2018-04-18T18:39:07.166Z,46.10
2018-04-18T18:41:33.432Z,45.60
2018-04-18T18:43:59.663Z,46.30
2018-04-18T18:46:25.908Z,46.50
2018-04-18T18:48:52.916Z,46.70
2018-04-18T18:51:19.161Z,46.40
2018-04-18T18:53:45.432Z,46.30
2018-04-18T18:56:11.889Z,46.40
2018-04-18T18:58:38.125Z,46.40
2018-04-18T19:01:04.551Z,46.30
2018-04-18T19:03:30.793Z,46.40
2018-04-18T19:05:57.076Z,46.40
2018-04-18T19:08:23.297Z,46.40
2018-04-18T19:10:49.590Z,46.50
2018-04-18T19:13:15.837Z,46.50
2018-04-18T19:15:42.066Z,46.70
2018-04-18T19:18:08.341Z,46.90
2018-04-18T19:20:35.366Z,46.50
2018-04-18T19:23:01.629Z,46.50
2018-04-18T19:25:27.891Z,46.60
2018-04-18T19:27:54.997Z,46.70
2018-04-18T19:30:21.307Z,46.70
2018-04-18T19:32:47.611Z,46.70
2018-04-18T19:35:13.862Z,46.80
2018-04-18T19:37:40.099Z,46.70
2018-04-18T19:40:07.137Z,46.60
2018-04-18T19:42:34.196Z,46.70
2018-04-18T19:45:01.080Z,46.60
2018-04-18T19:47:27.540Z,46.60
2018-04-18T19:49:53.816Z,46.80
2018-04-18T19:52:20.836Z,47.90
2018-04-18T19:54:47.093Z,47.20
2018-04-18T19:57:13.359Z,47.00
2018-04-18T19:59:39.593Z,46.70
2018-04-18T20:02:06.132Z,46.60
2018-04-18T20:04:32.383Z,47.10
2018-04-18T20:06:58.666Z,47.20
2018-04-18T20:09:24.901Z,46.80
2018-04-18T20:11:51.138Z,47.10
2018-04-18T20:14:17.393Z,46.80
2018-04-18T20:16:43.629Z,47.10
2018-04-18T20:19:09.897Z,47.40
2018-04-18T20:21:36.128Z,47.20
2018-04-18T20:24:02.343Z,47.50
2018-04-18T20:26:28.584Z,47.40
2018-04-18T20:28:55.169Z,47.50
2018-04-18T20:31:22.033Z,47.30
2018-04-18T20:33:48.265Z,47.00
2018-04-18T20:36:14.514Z,47.00
2018-04-18T20:38:40.758Z,47.00
2018-04-18T20:41:07.741Z,46.90
2018-04-18T20:43:34.009Z,46.80
2018-04-18T20:46:00.256Z,47.00
2018-04-18T20:48:26.778Z,47.20
2018-04-18T20:50:53.006Z,47.20
2018-04-18T20:53:19.266Z,47.50
2018-04-18T20:55:45.557Z,47.30
2018-04-18T20:58:11.823Z,47.40
2018-04-18T21:00:38.074Z,47.20
2018-04-18T21:03:04.341Z,47.10
2018-04-18T21:05:30.586Z,47.80
2018-04-18T21:07:57.888Z,47.30
2018-04-18T21:10:24.122Z,47.40
2018-04-18T21:12:50.406Z,47.40
2018-04-18T21:15:16.664Z,47.50
2018-04-18T21:17:42.901Z,47.40
2018-04-18T21:20:09.203Z,47.30
2018-04-18T21:22:35.441Z,47.20
2018-04-18T21:25:02.610Z,47.30
2018-04-18T21:27:28.859Z,47.20
2018-04-18T21:29:55.102Z,47.20
2018-04-18T21:32:21.387Z,47.10
2018-04-18T21:34:47.635Z,46.90
2018-04-18T21:37:14.687Z,47.00
2018-04-18T21:39:42.456Z,47.10
2018-04-18T21:42:08.697Z,47.00
2018-04-18T21:44:34.975Z,47.10
2018-04-18T21:47:01.232Z,47.10
2018-04-18T21:49:27.582Z,47.10
2018-04-18T21:51:53.828Z,47.00
2018-04-18T21:54:20.050Z,47.00
2018-04-18T21:56:46.308Z,47.00
2018-04-18T21:59:12.547Z,46.80
2018-04-18T22:06:42.108Z,47.00
2018-04-18T22:09:08.323Z,47.00
2018-04-18T22:11:34.561Z,47.00
2018-04-18T22:14:01.577Z,47.00
2018-04-18T22:16:27.837Z,47.00
2018-04-18T22:18:54.096Z,47.00
2018-04-18T22:21:20.377Z,47.00
2018-04-18T22:23:46.602Z,46.90
2018-04-18T22:26:12.828Z,47.00
